Terminal Aerodrome Forecast
Issued by NWS Charleston, WV

Home | Current Version | Previous Version | Text Only | Print | Product List | Glossary On
Versions: 1 2 3 4 5 6 7 8 9 10 11 12 13 14 15 16 17 18 19 20 21 22 23 24 25 26 27
000
FTUS41 KRLX 241158 CCA
TAFCRW
TAF COR
KCRW 241158Z 2412/2512 00000KT 1/2SM FG FEW001 SCT050 BKN100
     FM241230 16003KT P6SM SCT150
     FM241800 20005KT P6SM BKN070
     FM250000 15002KT P6SM BKN150
     FM250300 00000KT P6SM SCT150
     FM250900 00000KT 4SM BR BKN090=

USA.gov is the U.S. government's official web portal to all federal, state and local government web resources and services.